createdAt,value
2018-12-16T00:05:36.000Z,28.3
2018-12-16T00:15:36.000Z,28.5
2018-12-16T00:25:39.000Z,28.1
2018-12-16T00:35:36.000Z,28.2
2018-12-16T00:45:36.000Z,28.8
2018-12-16T00:55:36.000Z,28.3
2018-12-16T01:05:36.000Z,28.1
2018-12-16T01:15:36.000Z,27.9
2018-12-16T01:25:36.000Z,27.6
2018-12-16T01:35:36.000Z,28.2
2018-12-16T01:45:36.000Z,27.9
2018-12-16T01:55:36.000Z,27.8
2018-12-16T02:05:36.000Z,27.6
2018-12-16T02:15:36.000Z,27.6
2018-12-16T02:25:36.000Z,27.5
2018-12-16T02:35:36.000Z,27.7
2018-12-16T02:45:36.000Z,27.5
2018-12-16T02:55:36.000Z,27.6
2018-12-16T03:05:36.000Z,27.9
2018-12-16T03:15:36.000Z,28
2018-12-16T03:25:36.000Z,27.3
2018-12-16T03:35:36.000Z,27.6
2018-12-16T03:45:36.000Z,27.3
2018-12-16T03:55:36.000Z,27.6
2018-12-16T04:05:36.000Z,27.4
2018-12-16T04:15:36.000Z,27.7
2018-12-16T04:25:36.000Z,27.5
2018-12-16T04:35:36.000Z,27.4
2018-12-16T04:45:36.000Z,27.6
2018-12-16T04:55:36.000Z,27.6
2018-12-16T05:05:36.000Z,27.5
2018-12-16T05:15:36.000Z,27.8
2018-12-16T05:25:36.000Z,28
2018-12-16T05:35:36.000Z,28.7
2018-12-16T05:45:36.000Z,29.2
2018-12-16T05:55:36.000Z,30.3
2018-12-16T06:05:36.000Z,31.5
2018-12-16T06:15:36.000Z,32
2018-12-16T06:25:36.000Z,32.9
2018-12-16T06:35:36.000Z,33.9
2018-12-16T06:45:36.000Z,33.1
2018-12-16T06:55:36.000Z,33.2
2018-12-16T07:05:36.000Z,33.3
2018-12-16T07:15:36.000Z,33.4
2018-12-16T07:25:36.000Z,33.6
2018-12-16T07:35:37.000Z,33.7
2018-12-16T07:45:37.000Z,33.7
2018-12-16T07:55:37.000Z,40
2018-12-16T08:05:37.000Z,41.8
2018-12-16T08:15:37.000Z,44
2018-12-16T08:25:37.000Z,44.7
2018-12-16T08:35:37.000Z,47.1
2018-12-16T08:45:37.000Z,48.5
2018-12-16T08:55:37.000Z,50.2
2018-12-16T09:05:37.000Z,49.3
2018-12-16T09:15:37.000Z,48.4
2018-12-16T09:25:37.000Z,47.9
2018-12-16T09:35:37.000Z,49.8
2018-12-16T09:45:37.000Z,50.2
2018-12-16T09:55:37.000Z,50.3
2018-12-16T10:15:37.000Z,51.2
2018-12-16T10:25:37.000Z,51.3
2018-12-16T10:35:37.000Z,51.1
2018-12-16T10:45:37.000Z,51
2018-12-16T10:55:37.000Z,51
2018-12-16T11:05:37.000Z,50.8
2018-12-16T11:15:37.000Z,50.8
2018-12-16T11:25:37.000Z,50.7
2018-12-16T11:35:37.000Z,50.7
2018-12-16T11:45:37.000Z,50.7
2018-12-16T11:55:37.000Z,50.6
2018-12-16T12:05:37.000Z,50.4
2018-12-16T12:15:39.000Z,50.3
2018-12-16T12:25:37.000Z,50.3
2018-12-16T12:35:37.000Z,50.2
2018-12-16T12:45:37.000Z,50.2
2018-12-16T12:55:37.000Z,50.1
2018-12-16T13:05:38.000Z,50
2018-12-16T13:15:37.000Z,49.8
2018-12-16T13:25:37.000Z,49.6
2018-12-16T13:35:38.000Z,48.9
2018-12-16T13:45:37.000Z,49.3
2018-12-16T13:55:37.000Z,49.4
2018-12-16T14:05:37.000Z,49.4
2018-12-16T14:15:37.000Z,49.5
2018-12-16T14:45:38.000Z,49.6
2018-12-16T14:55:38.000Z,49.5
2018-12-16T15:05:38.000Z,49.5
2018-12-16T15:45:41.000Z,49.6
2018-12-16T15:55:38.000Z,50.6
2018-12-16T16:05:38.000Z,50.6
2018-12-16T16:15:40.000Z,51.2
2018-12-16T16:25:38.000Z,51.7
2018-12-16T16:35:38.000Z,50.3
2018-12-16T16:45:38.000Z,49.5
2018-12-16T16:55:38.000Z,48.8
2018-12-16T17:05:39.000Z,48.5
2018-12-16T17:15:38.000Z,47.8
2018-12-16T17:25:39.000Z,47.6
2018-12-16T17:35:38.000Z,48
2018-12-16T17:55:38.000Z,48.6
2018-12-16T18:05:38.000Z,49.3
2018-12-16T18:15:38.000Z,49.7
2018-12-16T18:25:38.000Z,49.9
2018-12-16T18:35:38.000Z,50.2
2018-12-16T18:45:38.000Z,50.4
2018-12-16T18:55:38.000Z,50.6
2018-12-16T19:05:38.000Z,50.8
2018-12-16T19:15:38.000Z,50.4
2018-12-16T19:25:38.000Z,50.7
2018-12-16T19:35:38.000Z,51.9
2018-12-16T19:45:38.000Z,52.2
2018-12-16T19:55:39.000Z,52.3
2018-12-16T20:05:38.000Z,52.4
2018-12-16T20:15:38.000Z,52.7
2018-12-16T20:25:38.000Z,52.8
2018-12-16T20:35:38.000Z,52.9
2018-12-16T20:45:38.000Z,52.8
2018-12-16T20:55:38.000Z,52.8
2018-12-16T21:05:39.000Z,52.7
2018-12-16T21:15:38.000Z,52.9
2018-12-16T21:25:38.000Z,52.9
2018-12-16T21:35:39.000Z,53.4
2018-12-16T21:45:39.000Z,42.8
2018-12-16T21:55:39.000Z,39.7
2018-12-16T22:05:39.000Z,40.1
2018-12-16T22:15:39.000Z,40.1
2018-12-16T22:25:40.000Z,39.9
2018-12-16T22:35:39.000Z,40.2
2018-12-16T22:45:39.000Z,40.7
2018-12-16T22:55:39.000Z,41
2018-12-16T23:05:41.000Z,41.2
2018-12-16T23:15:39.000Z,41.1
2018-12-16T23:25:39.000Z,41.1
2018-12-16T23:35:39.000Z,41.1
2018-12-16T23:45:39.000Z,41.4
2018-12-16T23:55:39.000Z,41.4
